Time;durP1;ratioP1;P1;durP2;ratioP2;P2;SDS_P1;SDS_P2;PMS_P1;PMS_P2;Temp;Humidity;BMP_temperature;BMP_pressure;BME280_temperature;BME280_humidity;BME280_pressure;Samples;Min_cycle;Max_cycle;Signal;HPM_P1;HPM_P2
2022/08/10 00:01:12;;;;;;;15.20;6.88;;;27.80;93.10;;;;;;5087201;28;20032;-49
2022/08/10 00:03:45;;;;;;;12.07;5.90;;;27.80;93.20;;;;;;5086150;28;20063;-51
2022/08/10 00:06:13;;;;;;;13.20;6.88;;;27.80;93.20;;;;;;5086930;28;20052;-53
2022/08/10 00:08:40;;;;;;;19.00;7.45;;;27.80;93.20;;;;;;5086863;28;20028;-49
2022/08/10 00:11:08;;;;;;;20.92;6.53;;;27.80;93.10;;;;;;5087060;28;20027;-52
2022/08/10 00:13:35;;;;;;;18.20;6.10;;;27.80;93.00;;;;;;5086542;28;20051;-44
2022/08/10 00:16:02;;;;;;;14.95;5.45;;;27.80;93.00;;;;;;5086889;28;20032;-45
2022/08/10 00:18:29;;;;;;;14.27;5.50;;;27.80;93.10;;;;;;5086759;28;20079;-50
2022/08/10 00:20:55;;;;;;;92.78;10.07;;;27.80;93.20;;;;;;5086604;28;20040;-52
2022/08/10 00:23:22;;;;;;;129.70;13.13;;;27.80;93.00;;;;;;5086707;28;20016;-55
2022/08/10 00:25:50;;;;;;;63.95;8.35;;;27.80;93.10;;;;;;5086647;28;20199;-54
2022/08/10 00:28:17;;;;;;;36.03;6.25;;;27.80;93.10;;;;;;5086520;28;20309;-48
2022/08/10 00:30:43;;;;;;;25.00;5.18;;;27.80;93.00;;;;;;5068481;28;20028;-52
2022/08/10 00:33:10;;;;;;;26.58;5.45;;;27.80;93.00;;;;;;5086599;28;20039;-53
2022/08/10 00:35:38;;;;;;;28.70;5.15;;;27.80;93.10;;;;;;5086783;28;20034;-54
2022/08/10 00:38:04;;;;;;;22.10;4.47;;;27.70;93.10;;;;;;5085837;28;20060;-50
2022/08/10 00:40:31;;;;;;;19.50;5.30;;;27.70;93.10;;;;;;5067595;28;20297;-55
2022/08/10 00:43:00;;;;;;;12.50;5.15;;;27.70;93.10;;;;;;5065814;28;20032;-52
2022/08/10 00:45:28;;;;;;;15.73;5.70;;;27.70;93.10;;;;;;5086351;28;20056;-50
2022/08/10 00:47:55;;;;;;;13.85;6.22;;;27.70;93.20;;;;;;5086207;28;20024;-48
2022/08/10 00:50:22;;;;;;;16.33;6.55;;;27.70;93.30;;;;;;5086208;28;20249;-52
2022/08/10 00:52:50;;;;;;;16.60;6.60;;;27.70;93.30;;;;;;5085974;28;20064;-51
2022/08/10 00:55:19;;;;;;;17.48;7.20;;;27.70;93.30;;;;;;5085936;28;20024;-49
2022/08/10 00:57:48;;;;;;;;;;;27.70;93.30;;;;;;5086306;28;20040;-54
2022/08/10 01:00:14;;;;;;;;;;;27.70;93.40;;;;;;5085716;28;24091;-47
2022/08/10 01:02:41;;;;;;;;;;;27.70;93.40;;;;;;5068301;28;20027;-55
2022/08/10 01:05:09;;;;;;;;;;;27.70;93.40;;;;;;5085927;28;19975;-53
2022/08/10 01:07:51;;;;;;;;;;;27.70;93.40;;;;;;5085832;28;24080;-54
2022/08/10 01:10:23;;;;;;;;;;;27.70;93.40;;;;;;5085655;28;24067;-51
2022/08/10 01:12:55;;;;;;;;;;;27.70;93.60;;;;;;5068414;28;19905;-50
2022/08/10 01:15:30;;;;;;;;;;;27.60;93.60;;;;;;5085835;28;19967;-50
2022/08/10 01:17:56;;;;;;;;;;;27.60;93.50;;;;;;5076240;28;19904;-52
2022/08/10 01:20:34;;;;;;;;;;;27.60;93.50;;;;;;5069774;28;19904;-48
2022/08/10 01:23:12;;;;;;;;;;;27.50;93.60;;;;;;5087912;28;20103;-49
2022/08/10 01:25:58;;;;;;;;;;;27.40;93.60;;;;;;5084703;28;20069;-47
2022/08/10 01:28:41;;;;;;;;;;;27.40;93.60;;;;;;5085097;28;20080;-49
2022/08/10 01:31:11;;;;;;;;;;;27.30;93.70;;;;;;5089349;28;20100;-51
2022/08/10 01:33:50;;;;;;;;;;;27.30;93.80;;;;;;5085675;28;20053;-48
2022/08/10 01:36:22;;;;;;;;;;;27.30;93.90;;;;;;5103025;28;19908;-52
2022/08/10 01:38:55;;;;;;;;;;;27.30;93.80;;;;;;5101670;28;20042;-47
2022/08/10 01:41:25;;;;;;;;;;;27.30;93.80;;;;;;5093665;28;25114;-51
2022/08/10 01:44:11;;;;;;;;;;;27.30;94.10;;;;;;5084756;28;20042;-49
2022/08/10 01:46:41;;;;;;;;;;;27.30;94.00;;;;;;5085705;28;19940;-50
2022/08/10 01:49:10;;;;;;;;;;;27.20;94.10;;;;;;5084870;28;24099;-51
2022/08/10 01:51:51;;;;;;;;;;;27.20;94.20;;;;;;5099115;28;19908;-50
2022/08/10 01:54:27;;;;;;;;;;;27.20;94.00;;;;;;5104610;28;19911;-51
2022/08/10 01:56:55;;;;;;;;;;;27.20;94.00;;;;;;5104821;28;20120;-53
2022/08/10 01:59:28;;;;;;;;;;;27.20;94.10;;;;;;5085876;28;19908;-49
2022/08/10 02:02:02;;;;;;;;;;;27.10;94.20;;;;;;5102495;28;19908;-49
2022/08/10 02:04:31;;;;;;;;;;;27.20;94.20;;;;;;5100175;28;19919;-47
2022/08/10 02:07:01;;;;;;;;;;;27.20;94.20;;;;;;5085198;28;19909;-47
2022/08/10 02:09:30;;;;;;;;;;;27.20;94.20;;;;;;5104586;28;20020;-49
2022/08/10 02:11:58;;;;;;;;;;;27.20;94.10;;;;;;5086194;28;19915;-51
2022/08/10 02:14:27;;;;;;;;;;;27.20;94.10;;;;;;5086392;28;20211;-48
2022/08/10 02:16:55;;;;;;;;;;;27.20;94.10;;;;;;5091727;28;20039;-49
2022/08/10 02:19:27;;;;;;;;;;;27.30;94.10;;;;;;5083677;28;20342;-52
2022/08/10 02:21:53;;;;;;;;;;;27.30;94.10;;;;;;5090073;28;19931;-47
2022/08/10 02:24:20;;;;;;;;;;;27.30;94.10;;;;;;5096201;28;20064;-45
2022/08/10 02:26:49;;;;;;;;;;;27.30;94.00;;;;;;5100193;28;19908;-44
2022/08/10 02:29:16;;;;;;;;;;;27.30;93.90;;;;;;5098247;28;20189;-52
2022/08/10 02:31:43;;;;;;;;;;;27.30;93.90;;;;;;5100637;28;24073;-46
2022/08/10 02:34:10;;;;;;;;;;;27.30;93.90;;;;;;5104053;28;19926;-50
2022/08/10 02:36:40;;;;;;;;;;;27.30;93.90;;;;;;5103624;28;19947;-47
2022/08/10 02:39:08;;;;;;;;;;;27.30;93.80;;;;;;5101362;28;19904;-49
2022/08/10 02:41:45;;;;;;;;;;;27.30;93.70;;;;;;5085761;28;19950;-46
2022/08/10 02:44:17;;;;;;;;;;;27.30;93.70;;;;;;5100651;28;24104;-45
2022/08/10 02:46:47;;;;;;;;;;;27.20;93.60;;;;;;5104222;28;19908;-51
2022/08/10 02:49:27;;;;;;;;;;;27.20;93.70;;;;;;5079773;28;20041;-49
2022/08/10 02:51:59;;;;;;;;;;;27.20;93.70;;;;;;5084300;28;19909;-51
2022/08/10 02:54:27;;;;;;;;;;;27.20;93.70;;;;;;5099248;28;19949;-47
2022/08/10 02:57:01;;;;;;;;;;;27.20;93.70;;;;;;5124667;28;20042;-48
2022/08/10 02:59:30;;;;;;;;;;;27.20;93.60;;;;;;5123946;28;19904;-47
2022/08/10 03:01:58;;;;;;;;;;;27.20;93.50;;;;;;5124122;28;20121;-49
2022/08/10 03:04:52;;;;;;;;;;;27.20;93.50;;;;;;5123957;28;19908;-45
2022/08/10 03:07:20;;;;;;;;;;;27.20;93.50;;;;;;5120724;28;20043;-48
2022/08/10 03:09:46;;;;;;;;;;;27.10;93.50;;;;;;5123142;28;20033;-50
2022/08/10 03:12:13;;;;;;;;;;;27.20;93.60;;;;;;5124408;28;19935;-43
2022/08/10 03:14:39;;;;;;;;;;;27.20;93.50;;;;;;5123909;28;19903;-51
2022/08/10 03:17:06;;;;;;;;;;;27.10;93.50;;;;;;5124800;28;19907;-50
2022/08/10 03:19:33;;;;;;;;;;;27.10;93.60;;;;;;5124134;28;24070;-48
2022/08/10 03:22:02;;;;;;;;;;;27.10;93.60;;;;;;5124588;28;19929;-46
2022/08/10 03:24:29;;;;;;;;;;;27.10;93.60;;;;;;5124276;28;20387;-49
2022/08/10 03:26:56;;;;;;;;;;;27.10;93.60;;;;;;5124393;28;20026;-49
2022/08/10 03:29:22;;;;;;;;;;;27.10;93.50;;;;;;5123999;28;19903;-49
2022/08/10 03:31:50;;;;;;;;;;;27.10;93.60;;;;;;5124987;28;19911;-47
2022/08/10 03:34:17;;;;;;;;;;;27.10;93.60;;;;;;5123895;28;19911;-47
2022/08/10 03:36:44;;;;;;;;;;;27.10;93.60;;;;;;5124172;28;20045;-54
2022/08/10 03:39:11;;;;;;;;;;;27.10;93.60;;;;;;5124041;28;19931;-55
2022/08/10 03:41:40;;;;;;;;;;;27.10;93.60;;;;;;5123680;28;19915;-49
2022/08/10 03:44:07;;;;;;;;;;;27.10;93.90;;;;;;5105932;28;19907;-50
2022/08/10 03:46:37;;;;;;;;;;;27.10;93.60;;;;;;5124198;28;20279;-48
2022/08/10 03:49:04;;;;;;;;;;;27.10;93.50;;;;;;5123928;28;20033;-48
2022/08/10 03:51:31;;;;;;;;;;;27.10;93.60;;;;;;5124044;28;19908;-49
2022/08/10 03:53:57;;;;;;;;;;;27.10;93.60;;;;;;5124067;28;19919;-48
2022/08/10 03:56:24;;;;;;;;;;;27.10;93.60;;;;;;5123830;28;19923;-54
2022/08/10 03:58:50;;;;;;;;;;;27.00;93.50;;;;;;5123914;28;20013;-47
2022/08/10 04:01:17;;;;;;;;;;;27.00;93.50;;;;;;5124012;28;20207;-51
2022/08/10 04:03:44;;;;;;;;;;;27.00;93.50;;;;;;5123977;28;20097;-50
2022/08/10 04:06:11;;;;;;;;;;;27.00;93.50;;;;;;5123353;28;20230;-47
2022/08/10 04:08:41;;;;;;;;;;;27.00;93.60;;;;;;5123860;28;19906;-48
2022/08/10 04:11:08;;;;;;;;;;;27.00;93.60;;;;;;5123606;28;19907;-46
2022/08/10 04:13:34;;;;;;;;;;;27.00;93.60;;;;;;5123944;28;19910;-46
2022/08/10 04:16:00;;;;;;;;;;;27.00;93.60;;;;;;5127611;28;19950;-51
2022/08/10 04:18:26;;;;;;;;;;;27.00;93.60;;;;;;5127402;28;20038;-51
2022/08/10 04:20:56;;;;;;;;;;;27.00;93.60;;;;;;5127254;28;19910;-48
2022/08/10 04:23:23;;;;;;;;;;;27.00;93.70;;;;;;5127289;28;20044;-48
2022/08/10 04:25:50;;;;;;;;;;;27.00;93.70;;;;;;5127190;28;20068;-48
2022/08/10 04:28:16;;;;;;;;;;;27.00;93.60;;;;;;5127334;28;24108;-49
2022/08/10 04:30:43;;;;;;;;;;;27.00;93.60;;;;;;5126976;28;24057;-49
2022/08/10 04:33:10;;;;;;;;;;;27.00;93.60;;;;;;5127109;28;19903;-48
2022/08/10 04:35:36;;;;;;;;;;;26.90;93.60;;;;;;5126497;28;20049;-50
2022/08/10 04:38:03;;;;;;;;;;;26.90;93.60;;;;;;5125793;28;19907;-55
2022/08/10 04:40:30;;;;;;;;;;;27.00;93.60;;;;;;5127557;28;19907;-54
2022/08/10 04:43:00;;;;;;;;;;;26.90;93.70;;;;;;5127142;28;20046;-55
2022/08/10 04:45:26;;;;;;;;;;;26.90;93.70;;;;;;5122701;28;24067;-47
2022/08/10 04:47:52;;;;;;;;;;;26.90;93.70;;;;;;5101233;28;19903;-48
2022/08/10 04:50:19;;;;;;;;;;;26.90;93.70;;;;;;5106287;28;20210;-53
2022/08/10 04:52:45;;;;;;;;;;;26.90;93.70;;;;;;5106268;28;19911;-50
2022/08/10 04:55:11;;;;;;;;;;;26.90;93.70;;;;;;5100241;28;19911;-50
2022/08/10 04:57:37;;;;;;;;;;;26.90;93.80;;;;;;5101211;28;19915;-47
2022/08/10 05:00:04;;;;;;;;;;;26.90;93.70;;;;;;5106154;28;19904;-50
2022/08/10 05:02:30;;;;;;;;;;;26.90;93.70;;;;;;5097964;28;19904;-51
2022/08/10 05:04:56;;;;;;;;;;;26.90;93.70;;;;;;5106600;28;19990;-53
2022/08/10 05:07:22;;;;;;;;;;;26.90;93.80;;;;;;5105998;28;25093;-48
2022/08/10 05:09:49;;;;;;;;;;;26.90;93.80;;;;;;5106221;28;19904;-56
2022/08/10 05:12:15;;;;;;;;;;;26.90;93.80;;;;;;5106362;28;19944;-44
2022/08/10 05:14:42;;;;;;;;;;;26.90;93.80;;;;;;5106113;28;19899;-46
2022/08/10 05:17:08;;;;;;;;;;;26.90;93.90;;;;;;5106538;28;19908;-54
2022/08/10 05:19:34;;;;;;;;;;;26.90;93.90;;;;;;5106244;28;19904;-47
2022/08/10 05:22:01;;;;;;;;;;;26.90;93.90;;;;;;5106084;28;19975;-53
2022/08/10 05:24:27;;;;;;;;;;;26.90;93.90;;;;;;5105883;28;19915;-46
2022/08/10 05:26:53;;;;;;;;;;;26.80;93.90;;;;;;5105305;28;24049;-52
2022/08/10 05:29:19;;;;;;;;;;;26.80;93.90;;;;;;5105952;28;19943;-49
2022/08/10 05:31:45;;;;;;;;;;;26.80;93.90;;;;;;5106746;28;19908;-45
2022/08/10 05:34:11;;;;;;;;;;;26.80;93.90;;;;;;5105789;28;24072;-47
2022/08/10 05:36:38;;;;;;;;;;;26.80;93.80;;;;;;5105844;28;24085;-50
2022/08/10 05:39:04;;;;;;;;;;;26.80;93.80;;;;;;5105747;28;19911;-49
2022/08/10 05:41:31;;;;;;;;;;;26.80;93.70;;;;;;5105207;28;19908;-54
2022/08/10 05:43:57;;;;;;;;;;;26.80;93.70;;;;;;5105884;28;19912;-47
2022/08/10 05:46:23;;;;;;;;;;;26.80;93.70;;;;;;5105972;28;24101;-52
2022/08/10 05:48:49;;;;;;;;;;;26.80;93.70;;;;;;5105541;28;19910;-52
2022/08/10 05:51:16;;;;;;;;;;;26.70;93.70;;;;;;5105447;28;20180;-54
2022/08/10 05:53:42;;;;;;;;;;;26.70;93.60;;;;;;5105159;28;20078;-57
2022/08/10 05:56:08;;;;;;;;;;;26.70;93.70;;;;;;5105178;28;19930;-51
2022/08/10 05:58:35;;;;;;;;;;;26.70;93.70;;;;;;5104995;28;20100;-54
2022/08/10 06:01:02;;;;;;;;;;;26.70;93.70;;;;;;5105229;28;20059;-58
2022/08/10 06:03:39;;;;;;;;;;;26.70;93.80;;;;;;5104966;28;24078;-56
2022/08/10 06:06:07;;;;;;;;;;;26.70;93.80;;;;;;5105399;28;19908;-56
2022/08/10 06:08:34;;;;;;;;;;;26.70;93.90;;;;;;5105047;28;19904;-48
2022/08/10 06:11:01;;;;;;;;;;;26.60;93.80;;;;;;5105207;28;24067;-55
2022/08/10 06:16:14;;;;;;;;;;;26.60;93.90;;;;;;5105013;28;19950;-49
2022/08/10 06:18:41;;;;;;;;;;;26.60;93.90;;;;;;5105132;28;20100;-47
2022/08/10 06:21:08;;;;;;;;;;;26.60;93.90;;;;;;5104929;28;19945;-50
2022/08/10 06:23:35;;;;;;;;;;;26.60;93.90;;;;;;5104400;28;19962;-53
2022/08/10 06:26:02;;;;;;;;;;;26.60;93.80;;;;;;5104801;28;19904;-50
2022/08/10 06:28:30;;;;;;;;;;;26.60;93.80;;;;;;5103811;28;19930;-54
2022/08/10 06:30:56;;;;;;;;;;;26.60;93.80;;;;;;5104955;28;19911;-47
2022/08/10 06:33:23;;;;;;;;;;;26.60;93.80;;;;;;5104568;28;19904;-53
2022/08/10 06:35:51;;;;;;;;;;;26.60;93.90;;;;;;5104317;28;19908;-45
2022/08/10 06:38:17;;;;;;;;;;;26.60;93.80;;;;;;5103091;28;24070;-51
2022/08/10 06:40:46;;;;;;;;;;;26.60;93.80;;;;;;5104617;28;19908;-47
2022/08/10 06:43:14;;;;;;;;;;;26.60;93.80;;;;;;5104184;28;19904;-53
2022/08/10 06:45:42;;;;;;;;;;;26.50;93.80;;;;;;5105001;28;20084;-48
2022/08/10 06:48:47;;;;;;;;;;;26.50;93.80;;;;;;5104672;28;19904;-47
2022/08/10 06:51:16;;;;;;;;;;;26.50;93.80;;;;;;5002304;28;24088;-45
2022/08/10 06:53:46;;;;;;;;;;;26.50;93.80;;;;;;5002811;28;20228;-49
2022/08/10 06:56:15;;;;;;;;;;;26.50;93.80;;;;;;5055215;28;19914;-49
2022/08/10 06:58:56;;;;;;;;;;;26.50;93.80;;;;;;5104315;28;20192;-49
2022/08/10 07:01:25;;;;;;;;;;;26.50;93.80;;;;;;5104705;28;19931;-53
2022/08/10 07:04:00;;;;;;;;;;;26.50;93.80;;;;;;5104532;28;19967;-48
2022/08/10 07:06:26;;;;;;;;;;;26.40;93.70;;;;;;5103962;28;19916;-46
2022/08/10 07:08:53;;;;;;;;;;;26.40;93.60;;;;;;5103930;28;20119;-46
2022/08/10 07:11:21;;;;;;;;;;;26.40;93.60;;;;;;5104833;28;20065;-50
2022/08/10 07:13:47;;;;;;;;;;;26.40;93.60;;;;;;5103881;28;24127;-54
2022/08/10 07:16:15;;;;;;;;;;;26.40;93.50;;;;;;5104349;28;19923;-49
2022/08/10 07:18:43;;;;;;;;;;;26.40;93.50;;;;;;5103992;28;19904;-55
2022/08/10 07:21:10;;;;;;;;;;;26.40;93.40;;;;;;5103961;28;19974;-54
2022/08/10 07:23:37;;;;;;;;;;;26.40;93.40;;;;;;5103376;28;19904;-45
2022/08/10 07:26:04;;;;;;;;;;;26.30;93.30;;;;;;5104110;28;19947;-48
2022/08/10 07:28:31;;;;;;;;;;;26.40;93.30;;;;;;5103784;28;19961;-52
2022/08/10 07:30:57;;;;;;;;;;;26.30;93.30;;;;;;5104235;28;20080;-52
2022/08/10 07:33:23;;;;;;;;;;;26.30;93.30;;;;;;5103761;28;19911;-52
2022/08/10 07:35:50;;;;;;;;;;;26.30;93.30;;;;;;5103594;28;19910;-53
2022/08/10 07:38:18;;;;;;;;;;;26.30;93.30;;;;;;5103544;28;19904;-58
2022/08/10 07:40:45;;;;;;;;;;;26.30;93.30;;;;;;5103832;28;24094;-53
2022/08/10 07:43:12;;;;;;;;;;;26.30;93.20;;;;;;5103299;28;19938;-49
2022/08/10 07:45:39;;;;;;;;;;;26.30;93.20;;;;;;5103894;28;19983;-49
2022/08/10 07:48:25;;;;;;;;;;;26.30;93.20;;;;;;5103523;28;19947;-48
2022/08/10 07:50:54;;;;;;;;;;;26.30;93.20;;;;;;5107294;28;19908;-47
2022/08/10 07:53:22;;;;;;;;;;;26.30;93.20;;;;;;5107124;28;19911;-52
2022/08/10 07:55:50;;;;;;;;;;;26.30;93.20;;;;;;5107372;28;19908;-55
2022/08/10 07:58:17;;;;;;;;;;;26.30;93.30;;;;;;5107368;28;19907;-55
2022/08/10 08:00:45;;;;;;;;;;;26.30;93.30;;;;;;5107240;28;24065;-56
2022/08/10 08:03:13;;;;;;;;;;;26.30;93.40;;;;;;5107424;28;19911;-55
2022/08/10 08:05:40;;;;;;;;;;;26.30;93.40;;;;;;5107388;28;19942;-51
2022/08/10 08:08:06;;;;;;;;;;;26.30;93.40;;;;;;5107425;28;19927;-50
2022/08/10 08:10:33;;;;;;;;;;;26.30;93.40;;;;;;5106688;28;19908;-52
2022/08/10 08:13:00;;;;;;;;;;;26.30;93.40;;;;;;5107307;28;19971;-49
2022/08/10 08:15:27;;;;;;;;;;;26.20;93.40;;;;;;5107305;28;19908;-54
2022/08/10 08:17:54;;;;;;;;;;;26.30;93.50;;;;;;5107061;28;19904;-53
2022/08/10 08:20:22;;;;;;;;;;;26.30;93.50;;;;;;5107434;28;24054;-52
2022/08/10 08:22:48;;;;;;;;;;;26.30;93.50;;;;;;5107075;28;20150;-56
2022/08/10 08:25:15;;;;;;;;;;;26.30;93.50;;;;;;5107227;28;19968;-52
2022/08/10 08:27:42;;;;;;;;;;;26.30;93.50;;;;;;5107137;28;19904;-55
2022/08/10 08:30:09;;;;;;;;;;;26.30;93.60;;;;;;5106639;28;19904;-53
2022/08/10 08:32:40;;;;;;;;;;;26.20;93.70;;;;;;5107158;28;19904;-47
2022/08/10 08:35:08;;;;;;;;;;;26.30;93.70;;;;;;5107216;28;19904;-52
2022/08/10 08:37:36;;;;;;;;;;;26.30;93.80;;;;;;5107283;28;19943;-52
2022/08/10 08:40:07;;;;;;;;;;;26.30;93.90;;;;;;5106904;28;19904;-54
2022/08/10 08:42:34;;;;;;;;;;;26.20;93.90;;;;;;5107169;28;19912;-53
2022/08/10 08:45:13;;;;;;;;;;;26.20;93.90;;;;;;5107269;28;19943;-52
2022/08/10 08:47:58;;;;;;;;;;;26.20;93.90;;;;;;5107057;28;19918;-51
2022/08/10 08:50:24;;;;;;;;;;;26.20;93.90;;;;;;5106870;28;19908;-50
2022/08/10 08:53:03;;;;;;;;;;;26.20;93.90;;;;;;5106835;28;19980;-53
2022/08/10 08:55:47;;;;;;;;;;;26.20;94.10;;;;;;5106909;28;19923;-53
2022/08/10 08:58:29;;;;;;;;;;;26.20;93.90;;;;;;5107040;28;19915;-54
2022/08/10 09:01:04;;;;;;;;;;;26.20;93.90;;;;;;5105797;28;19912;-50
2022/08/10 09:03:36;;;;;;;;;;;26.20;93.90;;;;;;5106687;28;19912;-54
2022/08/10 09:06:14;;;;;;;;;;;26.20;93.90;;;;;;5088728;28;20206;-53
2022/08/10 09:08:59;;;;;;;;;;;26.20;93.90;;;;;;5106763;28;19947;-55
2022/08/10 09:11:50;;;;;;;;;;;26.20;93.90;;;;;;5106639;28;19912;-54
2022/08/10 09:14:19;;;;;;;;;;;26.20;93.90;;;;;;5106798;28;19908;-52
2022/08/10 09:17:11;;;;;;;;;;;26.10;93.90;;;;;;5106883;28;20056;-49
2022/08/10 09:19:37;;;;;;;;;;;26.10;94.00;;;;;;5067970;28;19908;-50
2022/08/10 09:22:03;;;;;;;;;;;26.10;94.00;;;;;;5106821;28;20093;-55
2022/08/10 09:24:48;;;;;;;;;;;26.10;94.00;;;;;;5106476;28;19908;-54
2022/08/10 09:27:18;;;;;;;;;;;26.10;93.90;;;;;;5106654;28;20128;-52
2022/08/10 09:29:52;;;;;;;;;;;26.10;93.90;;;;;;5106486;28;20141;-53
2022/08/10 09:32:25;;;;;;;;;;;26.10;93.80;;;;;;5106530;28;19913;-53
2022/08/10 09:34:57;;;;;;;;;;;26.10;93.70;;;;;;5106335;28;19912;-48
2022/08/10 09:37:30;;;;;;;;;;;26.10;93.60;;;;;;5106542;28;19965;-47
2022/08/10 09:39:59;;;;;;;;;;;26.10;93.70;;;;;;5105931;28;19911;-48
2022/08/10 09:43:03;;;;;;;;;;;26.10;93.60;;;;;;5106546;28;19954;-51
2022/08/10 09:45:56;;;;;;;;;;;26.10;93.50;;;;;;5004521;28;19961;-46
2022/08/10 09:48:28;;;;;;;;;;;26.10;93.50;;;;;;5001428;28;19909;-48
2022/08/10 09:51:13;;;;;;;;;;;26.00;93.50;;;;;;5074495;28;19912;-49
2022/08/10 09:53:59;;;;;;;;;;;26.00;93.50;;;;;;5105458;28;19916;-53
2022/08/10 09:56:28;;;;;;;;;;;26.00;93.50;;;;;;5105921;28;20100;-48
2022/08/10 09:59:12;;;;;;;;;;;26.00;93.60;;;;;;5105619;28;19940;-47
2022/08/10 10:01:51;;;;;;;;;;;26.00;93.50;;;;;;5106144;28;19976;-48
2022/08/10 10:04:39;;;;;;;;;;;26.00;93.40;;;;;;5105456;28;19979;-54
2022/08/10 10:07:07;;;;;;;;;;;26.10;93.50;;;;;;5106005;28;19912;-55
2022/08/10 10:09:48;;;;;;;;;;;26.00;93.50;;;;;;5105417;28;19923;-53
2022/08/10 10:12:33;;;;;;;;;;;26.00;93.50;;;;;;5105648;28;19908;-61
2022/08/10 10:15:19;;;;;;;;;;;26.00;93.60;;;;;;5105358;28;20196;-49
2022/08/10 10:17:45;;;;;;;;;;;26.00;93.70;;;;;;5105157;28;19962;-50
2022/08/10 10:20:34;;;;;;;;;;;26.00;93.60;;;;;;5105209;28;19908;-44
2022/08/10 10:23:06;;;;;;;;;;;26.00;93.60;;;;;;5092032;28;19916;-49
2022/08/10 10:25:37;;;;;;;;;;;26.00;93.70;;;;;;5105075;28;19912;-49
2022/08/10 10:28:21;;;;;;;;;;;26.00;93.80;;;;;;5105038;28;19908;-48
2022/08/10 10:30:57;;;;;;;;;;;26.00;93.80;;;;;;5105093;28;20127;-51
2022/08/10 10:33:42;;;;;;;;;;;26.00;93.80;;;;;;5105207;28;19927;-47
2022/08/10 10:36:09;;;;;;;;;;;26.00;93.90;;;;;;5105209;28;19979;-51
2022/08/10 10:38:37;;;;;;;;;;;26.00;93.90;;;;;;5105271;28;19904;-48
2022/08/10 10:41:14;;;;;;;;;;;26.00;94.00;;;;;;5105039;28;19958;-46
2022/08/10 10:43:44;;;;;;;;;;;25.90;93.90;;;;;;5104707;28;19919;-49
2022/08/10 10:46:25;;;;;;;;;;;26.00;94.00;;;;;;5105011;28;19912;-47
2022/08/10 10:48:54;;;;;;;;;;;25.90;94.00;;;;;;5104843;28;19933;-57
2022/08/10 10:51:36;;;;;;;;;;;26.00;94.10;;;;;;5104897;28;19983;-55
2022/08/10 10:54:03;;;;;;;;;;;25.90;94.10;;;;;;5104649;28;19922;-50
2022/08/10 10:56:42;;;;;;;;;;;25.90;94.10;;;;;;5104914;28;19912;-47
2022/08/10 10:59:26;;;;;;;;;;;25.90;94.10;;;;;;5104582;28;20212;-49
2022/08/10 11:01:52;;;;;;;;;;;26.00;94.10;;;;;;5104841;28;19912;-50
2022/08/10 11:04:38;;;;;;;;;;;26.00;94.20;;;;;;5104587;28;19991;-47
2022/08/10 11:07:12;;;;;;;;;;;26.00;94.20;;;;;;5105082;28;19919;-49
2022/08/10 11:09:38;;;;;;;;;;;26.00;94.20;;;;;;5104679;28;19944;-49
2022/08/10 11:12:24;;;;;;;;;;;26.00;94.30;;;;;;5104980;28;19943;-49
2022/08/10 11:15:03;;;;;;;;;;;26.00;94.30;;;;;;5087095;28;20115;-52
2022/08/10 11:17:32;;;;;;;;;;;26.00;94.40;;;;;;5104959;28;19918;-47
2022/08/10 11:19:58;;;;;;;;;;;25.90;94.50;;;;;;5103801;28;19908;-46
2022/08/10 11:22:24;;;;;;;;;;;25.90;94.50;;;;;;5103221;28;19979;-51
2022/08/10 11:24:53;;;;;;;;;;;25.90;94.50;;;;;;5105664;28;19953;-48
2022/08/10 11:27:22;;;;;;;;;;;26.00;94.50;;;;;;5107167;28;19920;-49
2022/08/10 11:29:57;;;;;;;;;;;26.00;94.40;;;;;;5106799;28;19947;-49
2022/08/10 11:32:25;;;;;;;;;;;26.00;94.40;;;;;;5107181;28;20206;-50
2022/08/10 11:35:02;;;;;;;;;;;26.00;94.40;;;;;;5108023;28;19923;-50
2022/08/10 11:37:31;;;;;;;;;;;26.00;94.40;;;;;;5088464;28;20116;-50
2022/08/10 11:40:05;;;;;;;;;;;26.00;94.40;;;;;;5087951;28;19908;-48
2022/08/10 11:42:31;;;;;;;;;;;26.00;94.50;;;;;;5088372;28;19971;-54
2022/08/10 11:45:12;;;;;;;;;;;26.00;94.50;;;;;;5087751;28;20212;-62
2022/08/10 11:47:43;;;;;;;;;;;26.00;94.50;;;;;;5087801;28;19999;-48
2022/08/10 11:50:23;;;;;;;;;;;26.00;94.50;;;;;;5087705;28;19947;-47
2022/08/10 11:52:56;;;;;;;;;;;26.00;94.50;;;;;;5087547;28;19916;-47
2022/08/10 11:55:24;;;;;;;;;;;26.00;94.50;;;;;;5087651;28;19919;-47
2022/08/10 11:57:52;;;;;;;;;;;26.00;94.50;;;;;;5087507;28;19909;-48
2022/08/10 12:00:19;;;;;;;;;;;26.00;94.60;;;;;;5087967;28;19965;-53
2022/08/10 12:02:48;;;;;;;;;;;26.00;94.60;;;;;;5087625;28;19908;-51
2022/08/10 12:05:19;;;;;;;;;;;26.00;94.50;;;;;;5102064;28;19908;-46
2022/08/10 12:07:52;;;;;;;;;;;26.10;94.50;;;;;;5108036;28;19908;-50
2022/08/10 12:10:20;;;;;;;;;;;26.10;94.50;;;;;;5107588;28;19916;-53
2022/08/10 12:12:52;;;;;;;;;;;26.10;94.60;;;;;;5108187;28;20163;-49
2022/08/10 12:15:22;;;;;;;;;;;26.10;94.60;;;;;;5107726;28;19915;-51
2022/08/10 12:17:53;;;;;;;;;;;26.10;94.60;;;;;;5107640;28;20104;-48
2022/08/10 12:20:28;;;;;;;;;;;26.10;94.60;;;;;;5107802;28;20104;-55
2022/08/10 12:23:30;;;;;;;;;;;26.10;94.70;;;;;;5107384;28;19908;-56
2022/08/10 12:25:56;;;;;;;;;;;26.10;94.50;;;;;;5006154;28;19936;-49
2022/08/10 12:28:27;;;;;;;;;;;26.10;94.40;;;;;;5087928;28;19908;-49
2022/08/10 12:30:56;;;;;;;;;;;26.10;94.60;;;;;;5089303;28;19915;-57
2022/08/10 12:33:25;;;;;;;;;;;26.10;94.60;;;;;;5107369;28;19942;-54
2022/08/10 12:35:54;;;;;;;;;;;26.10;94.60;;;;;;5107598;28;19958;-50
2022/08/10 12:38:38;;;;;;;;;;;26.20;94.70;;;;;;5107256;28;19908;-51
2022/08/10 12:41:17;;;;;;;;;;;26.20;94.70;;;;;;5107142;28;19912;-53
2022/08/10 12:43:50;;;;;;;;;;;26.20;94.70;;;;;;5107058;28;19919;-52
2022/08/10 12:46:39;;;;;;;;;;;26.20;94.60;;;;;;5107198;28;19916;-46
2022/08/10 12:49:12;;;;;;;;;;;26.20;94.70;;;;;;5107015;28;19914;-47
2022/08/10 12:51:45;;;;;;;;;;;26.20;94.80;;;;;;5107386;28;20203;-50
2022/08/10 12:54:13;;;;;;;;;;;26.20;94.70;;;;;;5105005;28;19924;-50
2022/08/10 12:56:59;;;;;;;;;;;26.20;94.70;;;;;;5107053;28;19986;-54
2022/08/10 12:59:26;;;;;;;;;;;26.30;94.80;;;;;;5106353;28;19908;-46
2022/08/10 13:01:53;;;;;;;;;;;26.20;94.70;;;;;;5107200;28;19908;-52
2022/08/10 13:04:36;;;;;;;;;;;26.30;94.50;;;;;;5106890;28;19916;-51
2022/08/10 13:07:03;;;;;;;;;;;26.20;94.40;;;;;;5107242;28;19919;-46
2022/08/10 13:09:30;;;;;;;;;;;26.30;94.40;;;;;;5106543;28;19908;-47
2022/08/10 13:12:04;;;;;;;;;;;26.30;94.20;;;;;;5106965;28;19947;-49
2022/08/10 13:14:34;;;;;;;;;;;26.30;94.10;;;;;;5105474;28;19904;-51
2022/08/10 13:17:01;;;;;;;;;;;26.40;93.70;;;;;;5106902;28;19912;-54
2022/08/10 13:19:29;;;;;;;;;;;26.40;93.70;;;;;;5106493;28;19946;-46
2022/08/10 13:21:56;;;;;;;;;;;26.40;93.60;;;;;;5106706;28;19919;-45
2022/08/10 13:24:30;;;;;;;;;;;26.50;93.50;;;;;;5106386;28;19915;-47
2022/08/10 13:27:01;;;;;;;;;;;26.40;93.30;;;;;;5106934;28;19954;-46
2022/08/10 13:29:29;;;;;;;;;;;26.50;93.40;;;;;;5106323;28;19935;-59
2022/08/10 13:31:56;;;;;;;;;;;26.50;93.40;;;;;;5106566;28;20217;-55
2022/08/10 13:34:24;;;;;;;;;;;26.50;93.40;;;;;;5106340;28;20271;-52
2022/08/10 13:36:53;;;;;;;;;;;26.50;93.50;;;;;;5106451;28;19912;-50
2022/08/10 13:39:22;;;;;;;;;;;26.50;93.70;;;;;;5106337;28;19935;-50
2022/08/10 13:41:51;;;;;;;;;;;26.50;93.60;;;;;;5104867;28;19912;-48
2022/08/10 13:44:30;;;;;;;;;;;26.60;93.60;;;;;;5106112;28;19986;-52
2022/08/10 13:46:56;;;;;;;;;;;26.60;93.70;;;;;;5105687;28;19912;-47
2022/08/10 13:49:23;;;;;;;;;;;26.60;93.70;;;;;;5105727;28;19949;-50
2022/08/10 13:51:50;;;;;;;;;;;26.60;93.80;;;;;;5106390;28;19920;-46
2022/08/10 13:54:17;;;;;;;;;;;26.60;93.50;;;;;;5106039;28;19958;-48
2022/08/10 13:56:44;;;;;;;;;;;26.60;93.70;;;;;;5105206;28;19916;-52
2022/08/10 13:59:12;;;;;;;;;;;26.60;93.70;;;;;;5105751;28;19916;-55
2022/08/10 14:01:38;;;;;;;;;;;26.60;93.60;;;;;;5106366;28;19912;-46
2022/08/10 14:04:05;;;;;;;;;;;26.60;93.70;;;;;;5105899;28;19939;-53
2022/08/10 14:06:32;;;;;;;;;;;26.60;93.60;;;;;;5106053;28;19913;-49
2022/08/10 14:09:07;;;;;;;;;;;26.70;93.60;;;;;;5105750;28;19914;-46
2022/08/10 14:11:35;;;;;;;;;;;26.70;93.60;;;;;;5106062;28;19915;-48
2022/08/10 14:14:03;;;;;;;;;;;26.70;93.90;;;;;;5104637;28;19979;-53
2022/08/10 14:16:30;;;;;;;;;;;26.70;93.60;;;;;;5105953;28;20188;-50
2022/08/10 14:18:59;;;;;;;;;;;26.70;93.50;;;;;;5105090;28;19908;-48
2022/08/10 14:21:26;;;;;;;;;;;26.70;93.40;;;;;;5105928;28;19912;-48
2022/08/10 14:23:53;;;;;;;;;;;26.70;93.40;;;;;;5105552;28;19908;-47
2022/08/10 14:26:21;;;;;;;;;;;26.70;93.40;;;;;;5105490;28;19919;-53
2022/08/10 14:28:56;;;;;;;;;;;26.70;93.30;;;;;;5104224;28;19939;-46
2022/08/10 14:31:24;;;;;;;;;;;26.80;93.20;;;;;;5105121;28;19913;-46